createdAt,value
2022-12-16T00:00:47.726Z,-0.04
2022-12-16T00:03:15.465Z,-0.02
2022-12-16T00:05:44.714Z,-0.02
2022-12-16T00:08:13.791Z,-0.02
2022-12-16T00:10:54.792Z,-0.03
2022-12-16T00:13:22.702Z,-0.01
2022-12-16T00:15:50.368Z,-0.02
2022-12-16T00:18:19.979Z,-0.02
2022-12-16T00:20:48.697Z,-0.04
2022-12-16T00:23:18.312Z,-0.03
2022-12-16T00:25:47.032Z,-0.01
2022-12-16T00:28:16.933Z,-0.02
2022-12-16T00:30:45.615Z,-0.05
2022-12-16T00:33:13.544Z,-0.04
2022-12-16T00:35:44.624Z,0.02
2022-12-16T00:38:13.773Z,-0.05
2022-12-16T00:40:43.116Z,-0.04
2022-12-16T00:43:11.134Z,-0.05
2022-12-16T00:45:39.324Z,-0.03
2022-12-16T00:48:08.203Z,-0.06
2022-12-16T00:50:36.470Z,-0.05
2022-12-16T00:53:04.733Z,-0.04
2022-12-16T00:55:32.480Z,-0.03
2022-12-16T00:58:01.475Z,-0.01
2022-12-16T01:00:29.628Z,-0.02
2022-12-16T01:02:57.442Z,-0.03
2022-12-16T01:05:26.945Z,0.00
2022-12-16T01:07:55.252Z,-0.01
2022-12-16T01:10:23.309Z,-0.02
2022-12-16T01:12:51.414Z,0.01
2022-12-16T01:15:20.722Z,-0.02
2022-12-16T01:17:48.386Z,0.02
2022-12-16T01:20:16.024Z,-0.01
2022-12-16T01:22:43.708Z,-0.02
2022-12-16T01:25:12.873Z,-0.01
2022-12-16T01:27:40.799Z,-0.02
2022-12-16T01:30:10.092Z,-0.03
2022-12-16T01:32:39.191Z,0.04
2022-12-16T01:35:18.024Z,-0.05
2022-12-16T01:37:51.229Z,0.06
2022-12-16T01:40:22.061Z,0.04
2022-12-16T01:42:49.859Z,-0.03
2022-12-16T01:45:38.678Z,-0.03
2022-12-16T01:48:21.098Z,-0.03
2022-12-16T01:50:50.254Z,-0.08
2022-12-16T01:53:18.033Z,-0.05
2022-12-16T01:55:51.553Z,-0.08
2022-12-16T01:58:23.447Z,-0.07
2022-12-16T02:00:51.407Z,-0.07
2022-12-16T02:03:21.109Z,-0.06
2022-12-16T02:05:50.204Z,-0.01
2022-12-16T02:08:19.338Z,0.04
2022-12-16T02:10:59.449Z,-0.01
2022-12-16T02:13:40.125Z,-0.02
2022-12-16T02:16:17.425Z,-0.01
2022-12-16T02:18:55.501Z,-0.02
2022-12-16T02:21:40.484Z,-0.04
2022-12-16T02:24:48.195Z,0.00
2022-12-16T02:27:46.901Z,-0.04
2022-12-16T02:30:42.000Z,-0.04
2022-12-16T02:33:22.207Z,-0.06
2022-12-16T02:35:56.617Z,-0.09
2022-12-16T02:38:31.760Z,0.00
2022-12-16T02:41:04.312Z,-0.04
2022-12-16T02:43:51.465Z,-0.09
2022-12-16T02:46:24.884Z,-0.10
2022-12-16T02:48:52.728Z,-0.12
2022-12-16T02:51:21.278Z,0.01
2022-12-16T02:53:51.463Z,-0.09
2022-12-16T02:56:30.386Z,-0.11
2022-12-16T02:59:11.652Z,-0.13
2022-12-16T03:01:49.194Z,-0.15
2022-12-16T03:04:21.931Z,-0.17
2022-12-16T03:06:52.365Z,-0.18
2022-12-16T03:09:25.214Z,-0.21
2022-12-16T03:11:55.384Z,-0.23
2022-12-16T03:14:26.585Z,-0.24
2022-12-16T03:16:56.623Z,-0.23
2022-12-16T03:19:26.006Z,-0.23
2022-12-16T03:22:00.974Z,-0.20
2022-12-16T03:24:29.785Z,-0.23
2022-12-16T03:27:07.162Z,-0.22
2022-12-16T03:29:41.736Z,-0.21
2022-12-16T03:32:15.452Z,-0.26
2022-12-16T03:34:49.437Z,-0.23
2022-12-16T03:37:17.273Z,-0.17
2022-12-16T03:39:49.716Z,-0.17
2022-12-16T03:42:18.030Z,-0.23
2022-12-16T03:44:47.352Z,-0.24
2022-12-16T03:47:23.057Z,-0.19
2022-12-16T03:49:51.555Z,-0.25
2022-12-16T03:52:19.206Z,-0.37
2022-12-16T03:54:46.884Z,-0.47
2022-12-16T03:57:15.672Z,-0.55
2022-12-16T03:59:43.641Z,-0.59
2022-12-16T04:02:11.647Z,-0.63
2022-12-16T04:04:40.787Z,-0.66
2022-12-16T04:07:24.706Z,-0.62
2022-12-16T04:09:53.502Z,-0.58
2022-12-16T04:12:39.044Z,-0.68
2022-12-16T04:15:33.724Z,-0.76
2022-12-16T04:18:18.726Z,-0.83
2022-12-16T04:21:10.801Z,-0.89
2022-12-16T04:24:05.493Z,-0.91
2022-12-16T04:26:53.153Z,-0.95
2022-12-16T04:29:21.309Z,-1.01
2022-12-16T04:31:49.137Z,-1.02
2022-12-16T04:34:29.324Z,-1.00
2022-12-16T04:37:18.015Z,-1.06
2022-12-16T04:40:12.253Z,-1.01
2022-12-16T04:42:57.500Z,-1.02
2022-12-16T04:45:42.876Z,-0.96
2022-12-16T04:48:28.144Z,-1.02
2022-12-16T04:51:13.483Z,-1.03
2022-12-16T04:53:59.890Z,-1.01
2022-12-16T04:56:45.306Z,-1.03
2022-12-16T04:59:30.504Z,-1.05
2022-12-16T05:02:16.040Z,-1.13
2022-12-16T05:05:01.201Z,-1.18
2022-12-16T05:07:46.530Z,-1.28
2022-12-16T05:10:33.001Z,-1.32
2022-12-16T05:13:18.178Z,-1.32
2022-12-16T05:16:03.568Z,-1.29
2022-12-16T05:18:48.970Z,-1.25
2022-12-16T05:21:34.280Z,-1.23
2022-12-16T05:24:19.587Z,-1.29
2022-12-16T05:27:20.582Z,-1.30
2022-12-16T05:30:17.029Z,-1.24
2022-12-16T05:33:13.912Z,-1.25
2022-12-16T05:35:58.921Z,-1.30
2022-12-16T05:38:44.242Z,-1.36
2022-12-16T05:41:29.541Z,-1.38
2022-12-16T05:44:16.110Z,-1.36
2022-12-16T05:47:01.714Z,-1.37
2022-12-16T05:49:46.874Z,-1.38
2022-12-16T05:52:32.095Z,-1.44
2022-12-16T05:55:17.450Z,-1.43
2022-12-16T05:58:02.707Z,-1.43
2022-12-16T06:00:49.311Z,-1.44
2022-12-16T06:03:34.972Z,-1.36
2022-12-16T06:06:20.255Z,-1.40
2022-12-16T06:09:05.534Z,-1.44
2022-12-16T06:11:50.766Z,-1.54
2022-12-16T06:14:36.046Z,-1.44
2022-12-16T06:17:22.740Z,-1.48
2022-12-16T06:20:08.054Z,-1.43
2022-12-16T06:22:53.448Z,-1.49
2022-12-16T06:25:38.661Z,-1.44
2022-12-16T06:28:24.016Z,-1.52
2022-12-16T06:31:09.236Z,-1.51
2022-12-16T06:33:55.870Z,-1.46
2022-12-16T06:36:41.334Z,-1.40
2022-12-16T06:39:26.501Z,-1.41
2022-12-16T06:42:11.976Z,-1.45
2022-12-16T06:44:57.253Z,-1.40
2022-12-16T06:47:42.578Z,-1.44
2022-12-16T06:50:25.666Z,-1.43
2022-12-16T06:53:10.584Z,-1.49
2022-12-16T06:55:55.941Z,-1.49
2022-12-16T06:58:43.449Z,-1.53
2022-12-16T07:01:28.655Z,-1.56
2022-12-16T07:04:13.724Z,-1.54
2022-12-16T07:07:00.305Z,-1.53
2022-12-16T07:09:45.710Z,-1.55
2022-12-16T07:12:30.924Z,-1.53
2022-12-16T07:15:16.146Z,-1.54
2022-12-16T07:18:03.445Z,-1.55
2022-12-16T07:20:48.737Z,-1.50
2022-12-16T07:23:35.956Z,-1.54
2022-12-16T07:26:21.290Z,-1.54
2022-12-16T07:29:06.587Z,-1.58
2022-12-16T07:31:51.040Z,-1.62
2022-12-16T07:34:40.800Z,-1.59
2022-12-16T07:37:28.282Z,-1.53
2022-12-16T07:40:14.903Z,-1.57
2022-12-16T07:43:00.242Z,-1.53
2022-12-16T07:45:46.178Z,-1.57
2022-12-16T07:48:31.552Z,-1.59
2022-12-16T07:51:16.732Z,-1.60
2022-12-16T07:54:02.097Z,-1.66
2022-12-16T07:56:47.863Z,-1.59
2022-12-16T07:59:32.624Z,-1.54
2022-12-16T08:02:26.125Z,-1.56
2022-12-16T08:05:11.662Z,-1.48
2022-12-16T08:07:58.329Z,-1.38
2022-12-16T08:10:43.421Z,-1.38
2022-12-16T08:13:44.402Z,-1.33
2022-12-16T08:16:29.447Z,-1.39
2022-12-16T08:19:15.160Z,-1.47
2022-12-16T08:22:00.600Z,-1.45
2022-12-16T08:25:00.453Z,-1.44
2022-12-16T08:27:45.698Z,-1.27
2022-12-16T08:30:32.496Z,-1.31
2022-12-16T08:33:19.514Z,-1.28
2022-12-16T08:36:05.293Z,-1.20
2022-12-16T08:38:50.632Z,-1.12
2022-12-16T08:41:35.981Z,-1.10
2022-12-16T08:44:21.388Z,-1.18
2022-12-16T08:47:08.265Z,-1.12
2022-12-16T08:50:05.645Z,-1.16
2022-12-16T08:52:50.631Z,-1.09
2022-12-16T08:55:35.832Z,-1.19
2022-12-16T08:58:21.117Z,-1.06
2022-12-16T09:01:07.691Z,-1.12
2022-12-16T09:03:54.675Z,-0.98
2022-12-16T09:06:40.941Z,-1.14
2022-12-16T09:09:26.370Z,-1.12
2022-12-16T09:12:20.112Z,-0.96
2022-12-16T09:15:05.348Z,-0.98
2022-12-16T09:17:50.702Z,-0.98
2022-12-16T09:20:37.110Z,-0.90
2022-12-16T09:23:23.122Z,-0.92
2022-12-16T09:26:08.442Z,-0.93
2022-12-16T09:28:55.983Z,-0.94
2022-12-16T09:31:41.527Z,-0.82
2022-12-16T09:34:26.719Z,-0.79
2022-12-16T09:37:13.467Z,-0.83
2022-12-16T09:39:58.723Z,-0.84
2022-12-16T09:42:55.498Z,-0.83
2022-12-16T09:45:51.073Z,-0.77
2022-12-16T09:48:45.944Z,-0.85
2022-12-16T09:51:32.836Z,-0.76
2022-12-16T09:54:21.512Z,-0.78
2022-12-16T09:57:07.232Z,-0.76
2022-12-16T09:59:56.005Z,-0.75
2022-12-16T10:02:43.556Z,-0.84
2022-12-16T10:05:31.755Z,-0.96
2022-12-16T10:08:25.248Z,-1.03
2022-12-16T10:11:19.122Z,-1.01
2022-12-16T10:14:19.416Z,-0.96
2022-12-16T10:17:11.051Z,-1.04
2022-12-16T10:20:09.506Z,-1.02
2022-12-16T10:23:01.822Z,-0.94
2022-12-16T10:25:51.722Z,-0.95
2022-12-16T10:28:53.904Z,-0.90
2022-12-16T10:31:40.914Z,-0.91
2022-12-16T10:34:32.074Z,-0.88
2022-12-16T10:37:26.360Z,-0.83
2022-12-16T10:40:17.068Z,-1.05
2022-12-16T10:43:08.334Z,-0.98
2022-12-16T10:45:59.030Z,-1.01
2022-12-16T10:48:55.127Z,-1.00
2022-12-16T10:51:43.062Z,-0.90
2022-12-16T10:54:43.045Z,-1.00
2022-12-16T10:57:33.662Z,-0.84
2022-12-16T11:00:31.692Z,-0.78
2022-12-16T11:03:35.754Z,-0.89
2022-12-16T11:06:22.085Z,-1.09
2022-12-16T11:09:07.489Z,-1.06
2022-12-16T11:11:52.700Z,-1.10
2022-12-16T11:15:05.621Z,-1.27
2022-12-16T11:17:48.191Z,-1.25
2022-12-16T11:20:37.654Z,-1.36
2022-12-16T11:23:37.568Z,-1.36
2022-12-16T11:26:27.745Z,-1.26
2022-12-16T11:29:24.563Z,-1.28
2022-12-16T11:32:16.046Z,-1.29
2022-12-16T11:35:04.928Z,-1.18
2022-12-16T11:37:53.984Z,-1.21
2022-12-16T11:40:40.350Z,-1.19
2022-12-16T11:43:27.566Z,-1.08
2022-12-16T11:46:13.946Z,-0.99
2022-12-16T11:49:02.532Z,-0.97
2022-12-16T11:51:51.377Z,-0.81
2022-12-16T11:54:57.864Z,-0.68
2022-12-16T11:57:46.346Z,-0.76
2022-12-16T12:00:34.531Z,-0.97
2022-12-16T12:03:24.817Z,-0.97
2022-12-16T12:06:23.077Z,-1.08
2022-12-16T12:09:17.599Z,-1.09
2022-12-16T12:12:11.250Z,-1.24
2022-12-16T12:15:05.578Z,-1.11
2022-12-16T12:17:59.389Z,-1.15
2022-12-16T12:21:00.258Z,-1.21
2022-12-16T12:23:58.678Z,-1.21
2022-12-16T12:26:49.499Z,-1.18
2022-12-16T12:29:50.515Z,-1.17
2022-12-16T12:32:38.683Z,-1.19
2022-12-16T12:35:37.074Z,-1.21
2022-12-16T12:38:30.018Z,-1.03
2022-12-16T12:41:25.193Z,-0.95
2022-12-16T12:44:18.237Z,-0.92
2022-12-16T12:47:11.733Z,-0.97
2022-12-16T12:50:02.433Z,-0.93
2022-12-16T12:53:17.112Z,-1.03
2022-12-16T12:56:07.606Z,-1.11
2022-12-16T12:58:56.581Z,-1.26
2022-12-16T13:01:48.187Z,-1.23
2022-12-16T13:04:38.502Z,-1.18
2022-12-16T13:07:25.309Z,-1.25
2022-12-16T13:10:46.082Z,-1.32
2022-12-16T13:13:50.230Z,-1.32
2022-12-16T13:17:10.824Z,-1.22
2022-12-16T13:20:11.025Z,-1.22
2022-12-16T13:23:05.314Z,-1.28
2022-12-16T13:26:08.311Z,-1.32
2022-12-16T13:28:56.139Z,-1.32
2022-12-16T13:31:43.032Z,-1.29
2022-12-16T13:34:43.960Z,-1.35
2022-12-16T13:37:44.539Z,-1.35
2022-12-16T13:40:36.442Z,-1.35
2022-12-16T13:43:23.813Z,-1.45
2022-12-16T13:46:34.381Z,-1.45
2022-12-16T13:49:55.449Z,-1.36
2022-12-16T13:52:54.374Z,-1.49
2022-12-16T13:55:46.715Z,-1.46
2022-12-16T13:58:40.235Z,-1.42
2022-12-16T14:01:30.318Z,-1.45
2022-12-16T14:04:18.267Z,-1.50
2022-12-16T14:07:04.445Z,-1.47
2022-12-16T14:09:54.487Z,-1.50
2022-12-16T14:13:02.116Z,-1.55
2022-12-16T14:15:53.579Z,-1.65
2022-12-16T14:18:50.060Z,-1.72
2022-12-16T14:21:43.977Z,-1.74
2022-12-16T14:24:39.627Z,-1.82
2022-12-16T14:27:35.018Z,-1.81
2022-12-16T14:30:21.736Z,-1.72
2022-12-16T14:33:10.000Z,-1.79
2022-12-16T14:35:55.352Z,-1.73
2022-12-16T14:38:44.023Z,-1.81
2022-12-16T14:41:30.790Z,-1.76
2022-12-16T14:44:26.242Z,-1.83
2022-12-16T14:47:11.448Z,-1.89
2022-12-16T14:50:08.368Z,-1.95
2022-12-16T14:52:53.490Z,-1.95
2022-12-16T14:55:45.729Z,-2.04
2022-12-16T14:58:32.693Z,-2.08
2022-12-16T15:01:24.096Z,-2.11
2022-12-16T15:04:09.718Z,-2.18
2022-12-16T15:06:57.359Z,-2.13
2022-12-16T15:09:46.830Z,-2.15
2022-12-16T15:12:34.375Z,-2.08
2022-12-16T15:15:23.742Z,-2.10
2022-12-16T15:18:13.726Z,-2.12
2022-12-16T15:21:09.890Z,-2.16
2022-12-16T15:23:57.627Z,-2.26
2022-12-16T15:26:44.390Z,-2.19
2022-12-16T15:29:49.156Z,-2.19
2022-12-16T15:32:48.320Z,-2.22
2022-12-16T15:35:45.981Z,-2.21
2022-12-16T15:38:42.005Z,-2.19
2022-12-16T15:41:39.355Z,-2.25
2022-12-16T15:44:24.871Z,-2.19
2022-12-16T15:47:10.483Z,-2.33
2022-12-16T15:50:03.502Z,-2.34
2022-12-16T15:52:54.253Z,-2.37
2022-12-16T15:56:04.323Z,-2.35
2022-12-16T15:58:52.469Z,-2.50
2022-12-16T16:01:40.193Z,-2.46
2022-12-16T16:04:37.495Z,-2.47
2022-12-16T16:07:22.694Z,-2.50
2022-12-16T16:10:09.418Z,-2.50
2022-12-16T16:12:55.102Z,-2.50
2022-12-16T16:15:39.908Z,-2.57
2022-12-16T16:18:28.518Z,-2.58
2022-12-16T16:21:13.765Z,-2.62
2022-12-16T16:23:59.204Z,-2.61
2022-12-16T16:26:47.113Z,-2.64
2022-12-16T16:29:32.401Z,-2.61
2022-12-16T16:32:17.785Z,-2.55
2022-12-16T16:35:03.079Z,-2.58
2022-12-16T16:37:48.357Z,-2.53
2022-12-16T16:40:47.486Z,-2.59
2022-12-16T16:43:30.925Z,-2.59
2022-12-16T16:46:16.623Z,-2.58
2022-12-16T16:49:01.672Z,-2.55
2022-12-16T16:51:47.192Z,-2.59
2022-12-16T16:54:32.450Z,-2.51
2022-12-16T16:57:34.142Z,-2.56
2022-12-16T17:00:21.187Z,-2.53
2022-12-16T17:03:06.714Z,-2.53
2022-12-16T17:06:00.420Z,-2.48
2022-12-16T17:08:45.836Z,-2.48
2022-12-16T17:11:36.883Z,-2.42
2022-12-16T17:14:22.744Z,-2.39
2022-12-16T17:17:09.282Z,-2.40
2022-12-16T17:19:54.595Z,-2.40
2022-12-16T17:22:39.973Z,-2.38
2022-12-16T17:25:26.249Z,-2.39
2022-12-16T17:28:11.538Z,-2.42
2022-12-16T17:30:56.857Z,-2.42
2022-12-16T17:33:43.711Z,-2.39
2022-12-16T17:36:32.066Z,-2.42
2022-12-16T17:39:17.503Z,-2.40
2022-12-16T17:42:03.454Z,-2.28
2022-12-16T17:44:48.563Z,-2.30
2022-12-16T17:47:34.292Z,-2.37
2022-12-16T17:50:20.940Z,-2.34
2022-12-16T17:53:06.208Z,-2.36
2022-12-16T17:55:52.492Z,-2.35
2022-12-16T17:58:37.889Z,-2.38
2022-12-16T18:01:24.862Z,-2.37
2022-12-16T18:04:10.197Z,-2.35
2022-12-16T18:06:56.630Z,-2.35
2022-12-16T18:09:41.962Z,-2.36
2022-12-16T18:12:27.125Z,-2.35
2022-12-16T18:15:12.490Z,-2.35
2022-12-16T18:17:57.915Z,-2.33
2022-12-16T18:20:43.143Z,-2.36
2022-12-16T18:23:29.906Z,-2.38
2022-12-16T18:26:16.867Z,-2.38
2022-12-16T18:29:02.263Z,-2.35
2022-12-16T18:31:47.633Z,-2.36
2022-12-16T18:34:33.252Z,-2.37
2022-12-16T18:37:18.674Z,-2.28
2022-12-16T18:40:07.574Z,-2.34
2022-12-16T18:42:52.760Z,-2.31
2022-12-16T18:45:38.329Z,-2.36
2022-12-16T18:48:23.948Z,-2.36
2022-12-16T18:51:13.394Z,-2.40
2022-12-16T18:53:58.664Z,-2.46
2022-12-16T18:56:45.545Z,-2.39
2022-12-16T18:59:31.205Z,-2.34
2022-12-16T19:02:16.674Z,-2.37
2022-12-16T19:05:01.701Z,-2.36
2022-12-16T19:07:46.914Z,-2.36
2022-12-16T19:10:32.371Z,-2.38
2022-12-16T19:13:19.001Z,-2.47
2022-12-16T19:16:11.795Z,-2.47
2022-12-16T19:18:57.225Z,-2.41
2022-12-16T19:21:46.908Z,-2.49
2022-12-16T19:24:35.242Z,-2.38
2022-12-16T19:27:20.515Z,-2.37
2022-12-16T19:30:15.427Z,-2.41
2022-12-16T19:33:00.807Z,-2.47
2022-12-16T19:35:46.244Z,-2.49
2022-12-16T19:38:37.302Z,-2.50
2022-12-16T19:41:22.648Z,-2.48
2022-12-16T19:44:08.081Z,-2.50
2022-12-16T19:46:56.196Z,-2.50
2022-12-16T19:49:44.379Z,-2.52
2022-12-16T19:52:30.455Z,-2.54
2022-12-16T19:55:17.611Z,-2.54
2022-12-16T19:58:03.204Z,-2.54
2022-12-16T20:00:48.708Z,-2.60
2022-12-16T20:03:36.233Z,-2.55
2022-12-16T20:06:23.142Z,-2.54
2022-12-16T20:09:08.513Z,-2.55
2022-12-16T20:11:54.755Z,-2.52
2022-12-16T20:14:41.404Z,-2.52
2022-12-16T20:17:23.658Z,-2.53
2022-12-16T20:20:10.252Z,-2.52
2022-12-16T20:22:56.232Z,-2.50
2022-12-16T20:25:41.356Z,-2.52
2022-12-16T20:28:26.725Z,-2.57
2022-12-16T20:31:11.933Z,-2.57
2022-12-16T20:37:05.376Z,-2.54
2022-12-16T20:42:56.305Z,-2.50
2022-12-16T20:45:43.262Z,-2.51
2022-12-16T20:48:32.881Z,-2.52
2022-12-16T20:54:30.860Z,-2.49
2022-12-16T20:57:15.996Z,-2.56
2022-12-16T21:00:01.425Z,-2.53
2022-12-16T21:02:46.665Z,-2.55
2022-12-16T21:05:32.277Z,-2.60
2022-12-16T21:08:17.595Z,-2.56
2022-12-16T21:11:04.096Z,-2.57
2022-12-16T21:13:49.778Z,-2.57
2022-12-16T21:16:35.270Z,-2.57
2022-12-16T21:19:20.563Z,-2.50
2022-12-16T21:22:05.888Z,-2.61
2022-12-16T21:24:51.782Z,-2.59
2022-12-16T21:27:38.243Z,-2.62
2022-12-16T21:30:24.801Z,-2.61
2022-12-16T21:33:10.171Z,-2.64
2022-12-16T21:39:06.381Z,-2.63
2022-12-16T21:41:51.678Z,-2.59
2022-12-16T21:44:38.140Z,-2.58
2022-12-16T21:47:23.491Z,-2.62
2022-12-16T21:50:08.991Z,-2.59
2022-12-16T21:52:54.789Z,-2.60
2022-12-16T21:55:41.491Z,-2.59
2022-12-16T21:58:28.883Z,-2.58
2022-12-16T22:01:16.905Z,-2.55
2022-12-16T22:04:02.192Z,-2.60
2022-12-16T22:06:49.095Z,-2.54
2022-12-16T22:09:58.329Z,-2.61
2022-12-16T22:12:43.628Z,-2.56
2022-12-16T22:15:29.104Z,-2.56
2022-12-16T22:18:15.440Z,-2.61
2022-12-16T22:21:00.919Z,-2.63
2022-12-16T22:23:47.183Z,-2.62
2022-12-16T22:26:32.412Z,-2.64
2022-12-16T22:29:17.783Z,-2.65
2022-12-16T22:32:03.075Z,-2.64
2022-12-16T22:34:49.791Z,-2.65
2022-12-16T22:36:21.245Z,-2.54
2022-12-16T22:37:35.121Z,-2.69
2022-12-16T22:40:20.384Z,-2.69
2022-12-16T22:43:06.453Z,-2.75
2022-12-16T22:45:54.068Z,-2.71
2022-12-16T22:48:41.569Z,-2.73
2022-12-16T22:51:30.137Z,-2.78
2022-12-16T22:54:18.598Z,-2.77
2022-12-16T23:03:20.983Z,-2.94
2022-12-16T23:06:06.702Z,-2.98
2022-12-16T23:08:51.520Z,-3.04
2022-12-16T23:11:39.694Z,-3.03
2022-12-16T23:14:42.981Z,-3.04
2022-12-16T23:17:28.929Z,-3.11
2022-12-16T23:20:15.646Z,-3.08
2022-12-16T23:23:01.004Z,-3.02
2022-12-16T23:25:46.312Z,-3.01
2022-12-16T23:28:33.446Z,-3.10
2022-12-16T23:31:18.893Z,-3.09
2022-12-16T23:34:00.492Z,-3.16
2022-12-16T23:36:47.041Z,-3.08
2022-12-16T23:39:35.402Z,-3.07
2022-12-16T23:42:20.656Z,-3.12
2022-12-16T23:45:05.905Z,-3.14
2022-12-16T23:47:51.352Z,-3.19
2022-12-16T23:50:37.330Z,-3.19
2022-12-16T23:53:25.301Z,-3.11
2022-12-16T23:56:13.007Z,-3.13
2022-12-16T23:58:58.360Z,-3.19
